メキシコシティ の空港の天気 - METARとTAF

メキシコ・シティ国際空港 ( MMMX / MEX ) - メキシコ メキシコシティ
飛行場実況気象(Metar)
観測時間03/26 00:44 CST (03/26 06:44 UTC)
風向・風速東北東 2m/s
視程10km以上
天気現象
全天の4割程度の雲 雲底高度 2440m
気温15℃
湿度67%
気圧1027hPa
METARMMMX 260644Z 07003KT 12SM SCT080 15/09 A3033 NOSIG RMK 8/030
過去の天気等 Google飛行場航空写真 Wunderground天気予報

過去48時間のMETAR

飛行場予報(TAF)
発表時間: 3/25 22:13 CST (3/26 04:13 UTC)
予報対象時間: 26日0時 CST ~ 27日6時 CST
風向・風速南南西 3m/s
視程10km以上
天気現象煙霧
全天の4割程度の雲 雲底高度 610m
全天の4割程度の雲 雲底高度 2,440m
全天の8割程度の雲 雲底高度 6,100m
26日4時 CST から
風向・風速南東 3m/s
視程10km以上
天気現象煙霧
全天の4割程度の雲 雲底高度 460m
全天の4割程度の雲 雲底高度 2,440m
全天の8割程度の雲 雲底高度 6,100m
26日6時 CST ~ 26日10時 CST に一時的に
全天の8割程度の雲 雲底高度 460m
26日12時 CST から
風向・風速南東 5m/s
視程10km以上
全天の4割程度の雲 雲底高度 910m
全天の4割程度の雲 雲底高度 3,050m
全天の8割程度の雲 雲底高度 6,100m
26日16時 CST ~ 26日20時 CST に一時的に
視程8,050m
天気現象雷雨
全天の8割程度の積乱雲 雲底高度 610m
27日0時 CST から
風向・風速南東 3m/s
視程10km以上
天気現象煙霧
全天の4割程度の雲 雲底高度 460m
全天の8割程度の雲 雲底高度 2,440m
TAF MMMX 260413Z 2606/2712 20005KT 6SM HZ SCT020 SCT080 BKN200 TX27/2621Z TN10/2612Z
FM261000 14005KT 6SM HZ SCT015 SCT080 BKN200
TEMPO 2612/2616 BKN015
FM261800 13010KT P6SM SCT030 SCT100 BKN200
TEMPO 2622/2702 5SM TSRA BKN020CB
FM270600 13005KT 6SM HZ SCT015 BKN080